createdAt,value
2023-04-22T00:02:24.607Z,8.11
2023-04-22T00:04:52.377Z,8.10
2023-04-22T00:07:20.070Z,8.07
2023-04-22T00:09:47.590Z,8.07
2023-04-22T00:12:15.384Z,8.05
2023-04-22T00:14:42.834Z,8.02
2023-04-22T00:17:10.312Z,8.03
2023-04-22T00:19:38.458Z,8.02
2023-04-22T00:22:06.281Z,8.04
2023-04-22T00:24:34.245Z,8.01
2023-04-22T00:27:01.792Z,7.93
2023-04-22T00:29:29.679Z,7.91
2023-04-22T00:31:57.489Z,7.90
2023-04-22T00:34:25.153Z,7.85
2023-04-22T00:36:52.717Z,7.75
2023-04-22T00:39:20.191Z,7.73
2023-04-22T00:41:48.320Z,7.78
2023-04-22T00:44:15.822Z,7.67
2023-04-22T00:46:43.298Z,7.63
2023-04-22T00:49:10.808Z,7.59
2023-04-22T00:51:38.379Z,7.58
2023-04-22T00:54:06.597Z,7.55
2023-04-22T00:56:36.403Z,7.57
2023-04-22T00:59:03.817Z,7.60
2023-04-22T01:01:31.930Z,7.65
2023-04-22T01:04:01.120Z,7.63
2023-04-22T01:06:32.373Z,7.64
2023-04-22T01:09:00.264Z,7.62
2023-04-22T01:11:27.815Z,7.62
2023-04-22T01:13:56.533Z,7.63
2023-04-22T01:16:25.968Z,7.53
2023-04-22T01:18:54.364Z,7.59
2023-04-22T01:21:22.839Z,7.59
2023-04-22T01:23:51.313Z,7.68
2023-04-22T01:26:19.040Z,7.66
2023-04-22T01:28:46.933Z,7.59
2023-04-22T01:31:15.090Z,7.64
2023-04-22T01:33:44.331Z,7.65
2023-04-22T01:36:13.268Z,7.65
2023-04-22T01:38:41.217Z,7.59
2023-04-22T01:41:09.108Z,7.65
2023-04-22T01:43:36.823Z,7.61
2023-04-22T01:46:05.719Z,7.57
2023-04-22T01:48:35.660Z,7.59
2023-04-22T01:51:03.411Z,7.53
2023-04-22T01:53:31.275Z,7.53
2023-04-22T01:56:00.283Z,7.46
2023-04-22T01:58:30.966Z,7.44
2023-04-22T02:00:58.665Z,7.49
2023-04-22T02:03:26.349Z,7.43
2023-04-22T02:05:56.402Z,7.43
2023-04-22T02:08:24.134Z,7.57
2023-04-22T02:10:51.676Z,7.56
2023-04-22T02:13:19.799Z,7.59
2023-04-22T02:15:48.964Z,7.67
2023-04-22T02:18:18.082Z,7.51
2023-04-22T02:20:45.654Z,7.53
2023-04-22T02:23:13.199Z,7.51
2023-04-22T02:25:49.364Z,7.48
2023-04-22T02:28:19.938Z,7.45
2023-04-22T02:30:47.880Z,7.42
2023-04-22T02:33:15.677Z,7.51
2023-04-22T02:35:43.334Z,7.44
2023-04-22T02:38:15.049Z,7.48
2023-04-22T02:40:43.550Z,7.47
2023-04-22T02:43:13.206Z,7.41
2023-04-22T02:45:41.086Z,7.45
2023-04-22T02:48:08.933Z,7.44
2023-04-22T02:50:37.686Z,7.58
2023-04-22T02:53:05.364Z,7.56
2023-04-22T02:55:33.231Z,7.56
2023-04-22T02:58:00.928Z,7.56
2023-04-22T03:00:28.482Z,7.60
2023-04-22T03:02:56.228Z,7.56
2023-04-22T03:05:30.423Z,7.59
2023-04-22T03:07:58.101Z,7.52
2023-04-22T03:10:25.581Z,7.53
2023-04-22T03:12:53.215Z,7.61
2023-04-22T03:15:21.993Z,7.62
2023-04-22T03:17:49.995Z,7.64
2023-04-22T03:20:19.741Z,7.70
2023-04-22T03:22:47.983Z,7.68
2023-04-22T03:25:17.151Z,7.67
2023-04-22T03:27:50.765Z,7.74
2023-04-22T03:30:18.863Z,7.68
2023-04-22T03:32:47.841Z,7.76
2023-04-22T03:35:38.809Z,7.77
2023-04-22T03:38:06.526Z,7.72
2023-04-22T03:40:35.820Z,7.68
2023-04-22T03:43:09.492Z,7.67
2023-04-22T03:45:37.349Z,7.70
2023-04-22T03:48:18.284Z,7.64
2023-04-22T03:50:49.610Z,7.67
2023-04-22T03:53:17.661Z,7.68
2023-04-22T03:55:45.862Z,7.76
2023-04-22T03:58:14.846Z,7.72
2023-04-22T04:00:43.038Z,7.73
2023-04-22T04:03:16.957Z,7.83
2023-04-22T04:05:47.652Z,7.79
2023-04-22T04:08:16.010Z,7.82
2023-04-22T04:10:44.490Z,7.94
2023-04-22T04:13:12.198Z,7.84
2023-04-22T04:16:11.790Z,7.87
2023-04-22T04:18:42.448Z,7.88
2023-04-22T04:21:10.744Z,7.88
2023-04-22T04:23:44.474Z,7.90
2023-04-22T04:26:12.649Z,7.97
2023-04-22T04:28:43.577Z,7.91
2023-04-22T04:31:11.493Z,7.97
2023-04-22T04:33:39.680Z,7.97
2023-04-22T04:36:08.900Z,8.00
2023-04-22T04:38:36.580Z,8.07
2023-04-22T04:41:04.135Z,8.08
2023-04-22T04:43:32.960Z,8.02
2023-04-22T04:46:10.368Z,8.05
2023-04-22T04:48:42.513Z,8.03
2023-04-22T04:51:10.308Z,8.02
2023-04-22T04:53:43.257Z,8.04
2023-04-22T04:56:10.999Z,8.13
2023-04-22T04:58:38.886Z,8.20
2023-04-22T05:01:12.150Z,8.17
2023-04-22T05:03:39.991Z,8.26
2023-04-22T05:06:07.752Z,8.30
2023-04-22T05:08:37.478Z,8.40
2023-04-22T05:11:09.155Z,8.42
2023-04-22T05:13:36.785Z,8.59
2023-04-22T05:16:06.371Z,8.58
2023-04-22T05:18:33.852Z,8.64
2023-04-22T05:21:06.200Z,8.66
2023-04-22T05:23:35.340Z,8.74
2023-04-22T05:26:04.590Z,8.77
2023-04-22T05:28:33.072Z,8.69
2023-04-22T05:31:00.629Z,8.77
2023-04-22T05:33:30.133Z,8.89
2023-04-22T05:35:57.873Z,9.01
2023-04-22T05:38:25.671Z,9.08
2023-04-22T05:40:55.939Z,9.00
2023-04-22T05:43:24.803Z,8.96
2023-04-22T05:46:01.433Z,8.98
2023-04-22T05:48:29.337Z,8.91
2023-04-22T05:51:00.310Z,8.92
2023-04-22T05:53:29.930Z,9.00
2023-04-22T05:55:59.773Z,9.18
2023-04-22T05:58:27.488Z,9.14
2023-04-22T06:01:15.884Z,9.16
2023-04-22T06:03:54.100Z,9.16
2023-04-22T06:06:22.105Z,9.18
2023-04-22T06:08:49.803Z,9.12
2023-04-22T06:11:18.450Z,9.13
2023-04-22T06:13:46.049Z,9.11
2023-04-22T06:16:13.626Z,9.19
2023-04-22T06:18:43.453Z,9.30
2023-04-22T06:21:12.904Z,9.34
2023-04-22T06:23:40.960Z,9.46
2023-04-22T06:26:09.016Z,9.38
2023-04-22T06:28:37.972Z,9.41
2023-04-22T06:31:11.087Z,9.47
2023-04-22T06:33:38.897Z,9.47
2023-04-22T06:36:06.827Z,9.35
2023-04-22T06:38:35.985Z,9.35
2023-04-22T06:41:21.697Z,9.36
2023-04-22T06:43:50.905Z,9.51
2023-04-22T06:46:38.956Z,9.47
2023-04-22T06:49:32.808Z,9.56
2023-04-22T06:52:00.385Z,9.74
2023-04-22T06:54:27.958Z,9.84
2023-04-22T06:56:55.813Z,9.91
2023-04-22T06:59:24.210Z,9.77
2023-04-22T07:01:51.917Z,9.77
2023-04-22T07:04:19.681Z,9.90
2023-04-22T07:06:47.433Z,9.95
2023-04-22T07:09:15.006Z,10.07
2023-04-22T07:11:43.194Z,10.15
2023-04-22T07:14:18.342Z,10.10
2023-04-22T07:16:47.017Z,9.99
2023-04-22T07:19:14.633Z,9.90
2023-04-22T07:21:42.117Z,10.02
2023-04-22T07:24:13.315Z,10.09
2023-04-22T07:26:42.319Z,10.29
2023-04-22T07:29:10.087Z,10.30
2023-04-22T07:31:37.707Z,10.25
2023-04-22T07:34:05.407Z,10.25
2023-04-22T07:36:33.264Z,10.27
2023-04-22T07:39:00.836Z,10.16
2023-04-22T07:41:28.424Z,10.08
2023-04-22T07:43:56.018Z,10.02
2023-04-22T07:46:23.818Z,9.89
2023-04-22T07:48:51.364Z,9.87
2023-04-22T07:51:18.966Z,9.99
2023-04-22T07:53:46.716Z,10.12
2023-04-22T07:56:14.222Z,10.14
2023-04-22T07:58:41.758Z,10.17
2023-04-22T08:01:09.278Z,10.01
2023-04-22T08:03:37.175Z,9.99
2023-04-22T08:06:04.844Z,9.91
2023-04-22T08:08:32.388Z,9.95
2023-04-22T08:10:59.885Z,10.03
2023-04-22T08:13:27.356Z,10.15
2023-04-22T08:15:55.043Z,10.23
2023-04-22T08:18:22.601Z,10.25
2023-04-22T08:20:50.485Z,10.41
2023-04-22T08:23:17.965Z,10.53
2023-04-22T08:25:45.439Z,10.54
2023-04-22T08:28:12.945Z,10.52
2023-04-22T08:30:40.823Z,10.35
2023-04-22T08:33:08.327Z,10.20
2023-04-22T08:35:36.726Z,10.02
2023-04-22T08:38:04.280Z,10.09
2023-04-22T08:40:31.963Z,10.31
2023-04-22T08:42:59.605Z,10.39
2023-04-22T08:45:27.625Z,10.48
2023-04-22T08:47:56.438Z,10.54
2023-04-22T08:50:24.313Z,10.57
2023-04-22T08:52:51.909Z,10.56
2023-04-22T08:55:19.548Z,10.57
2023-04-22T08:57:48.001Z,10.63
2023-04-22T09:00:16.431Z,10.90
2023-04-22T09:02:45.849Z,10.72
2023-04-22T09:05:14.274Z,10.81
2023-04-22T09:07:42.121Z,10.71
2023-04-22T09:10:11.918Z,10.70
2023-04-22T09:12:41.250Z,10.69
2023-04-22T09:15:09.959Z,10.68
2023-04-22T09:17:41.484Z,10.71
2023-04-22T09:20:09.928Z,10.79
2023-04-22T09:22:43.779Z,10.88
2023-04-22T09:25:23.288Z,10.96
2023-04-22T09:27:54.870Z,11.01
2023-04-22T09:30:30.181Z,10.90
2023-04-22T09:33:03.079Z,10.82
2023-04-22T09:35:36.507Z,10.65
2023-04-22T09:38:08.176Z,10.63
2023-04-22T09:40:36.978Z,10.82
2023-04-22T09:43:07.722Z,10.89
2023-04-22T09:45:36.461Z,11.11
2023-04-22T09:48:22.071Z,11.36
2023-04-22T09:50:51.775Z,11.29
2023-04-22T09:53:20.402Z,11.29
2023-04-22T09:55:51.642Z,11.33
2023-04-22T09:58:23.740Z,11.29
2023-04-22T10:00:55.001Z,11.14
2023-04-22T10:03:23.219Z,11.13
2023-04-22T10:05:51.187Z,11.14
2023-04-22T10:08:18.816Z,11.16
2023-04-22T10:10:46.847Z,11.19
2023-04-22T10:13:17.274Z,11.39
2023-04-22T10:15:52.934Z,11.43
2023-04-22T10:18:26.427Z,11.63
2023-04-22T10:20:56.455Z,12.01
2023-04-22T10:23:25.366Z,12.17
2023-04-22T10:25:56.615Z,11.87
2023-04-22T10:28:28.935Z,11.75
2023-04-22T10:30:57.757Z,11.60
2023-04-22T10:33:27.772Z,11.58
2023-04-22T10:36:20.656Z,11.55
2023-04-22T10:38:51.040Z,11.71
2023-04-22T10:41:27.098Z,12.04
2023-04-22T10:44:00.581Z,12.17
2023-04-22T10:46:37.867Z,12.47
2023-04-22T10:49:11.433Z,12.48
2023-04-22T10:51:43.028Z,12.77
2023-04-22T10:54:36.472Z,13.03
2023-04-22T10:57:04.966Z,13.02
2023-04-22T10:59:35.434Z,13.25
2023-04-22T11:02:05.633Z,13.02
2023-04-22T11:04:34.176Z,12.73
2023-04-22T11:07:27.881Z,12.32
2023-04-22T11:10:07.543Z,11.96
2023-04-22T11:12:34.940Z,11.48
2023-04-22T11:15:11.416Z,11.23
2023-04-22T11:17:43.528Z,11.00
2023-04-22T11:20:13.213Z,10.94
2023-04-22T11:22:44.262Z,10.94
2023-04-22T11:25:12.034Z,11.16
2023-04-22T11:27:41.194Z,11.40
2023-04-22T11:30:18.953Z,11.68
2023-04-22T11:32:52.042Z,11.95
2023-04-22T11:35:27.132Z,11.99
2023-04-22T11:38:00.671Z,12.23
2023-04-22T11:40:32.615Z,12.28
2023-04-22T11:43:03.104Z,12.20
2023-04-22T11:45:33.524Z,12.39
2023-04-22T11:48:02.028Z,12.35
2023-04-22T11:50:32.188Z,12.42
2023-04-22T11:53:01.640Z,12.44
2023-04-22T11:55:31.854Z,12.48
2023-04-22T11:58:07.354Z,12.59
2023-04-22T12:00:41.609Z,12.50
2023-04-22T12:03:15.106Z,12.54
2023-04-22T12:05:49.961Z,12.60
2023-04-22T12:08:20.070Z,12.80
2023-04-22T12:10:56.818Z,12.97
2023-04-22T12:13:29.014Z,13.13
2023-04-22T12:15:58.708Z,13.46
2023-04-22T12:18:29.420Z,13.43
2023-04-22T12:21:18.093Z,13.54
2023-04-22T12:23:52.771Z,13.25
2023-04-22T12:26:25.362Z,12.97
2023-04-22T12:28:55.141Z,12.97
2023-04-22T12:31:22.838Z,12.77
2023-04-22T12:33:50.894Z,12.64
2023-04-22T12:36:23.454Z,12.59
2023-04-22T12:38:51.416Z,12.60
2023-04-22T12:41:19.015Z,12.67
2023-04-22T12:43:46.694Z,12.66
2023-04-22T12:46:14.314Z,12.69
2023-04-22T12:48:42.924Z,12.66
2023-04-22T12:51:10.538Z,12.69
2023-04-22T12:53:38.214Z,12.74
2023-04-22T12:56:05.811Z,12.56
2023-04-22T12:58:33.317Z,12.53
2023-04-22T13:01:00.842Z,12.49
2023-04-22T13:03:28.805Z,12.18
2023-04-22T13:05:56.420Z,11.54
2023-04-22T13:08:23.944Z,11.01
2023-04-22T13:10:51.565Z,10.67
2023-04-22T13:13:19.622Z,10.62
2023-04-22T13:15:50.627Z,10.64
2023-04-22T13:18:18.434Z,10.59
2023-04-22T13:20:46.353Z,10.61
2023-04-22T13:23:14.458Z,10.59
2023-04-22T13:25:42.035Z,10.47
2023-04-22T13:28:11.515Z,10.39
2023-04-22T13:30:39.714Z,10.28
2023-04-22T13:33:07.534Z,10.06
2023-04-22T13:35:35.749Z,9.80
2023-04-22T13:38:03.450Z,9.66
2023-04-22T13:40:30.913Z,9.66
2023-04-22T13:42:59.032Z,9.65
2023-04-22T13:45:26.670Z,9.76
2023-04-22T13:47:54.527Z,9.85
2023-04-22T13:50:23.398Z,9.86
2023-04-22T13:52:51.304Z,9.85
2023-04-22T13:55:18.942Z,9.92
2023-04-22T13:57:46.703Z,9.83
2023-04-22T14:00:14.962Z,9.91
2023-04-22T14:02:42.823Z,9.85
2023-04-22T14:05:10.940Z,9.97
2023-04-22T14:07:38.767Z,10.06
2023-04-22T14:10:08.522Z,9.97
2023-04-22T14:12:36.331Z,9.85
2023-04-22T14:15:04.157Z,9.97
2023-04-22T14:17:32.726Z,9.83
2023-04-22T14:20:00.242Z,9.97
2023-04-22T14:22:27.843Z,10.05
2023-04-22T14:24:55.737Z,10.24
2023-04-22T14:27:23.297Z,10.50
2023-04-22T14:29:54.001Z,10.76
2023-04-22T14:32:21.942Z,10.87
2023-04-22T14:34:49.497Z,10.82
2023-04-22T14:37:17.024Z,10.88
2023-04-22T14:39:44.514Z,11.01
2023-04-22T14:42:12.245Z,11.27
2023-04-22T14:44:39.877Z,11.40
2023-04-22T14:47:07.496Z,11.46
2023-04-22T14:49:35.047Z,11.47
2023-04-22T14:52:03.018Z,11.28
2023-04-22T14:54:30.863Z,11.47
2023-04-22T14:56:58.697Z,11.51
2023-04-22T14:59:26.553Z,11.38
2023-04-22T15:01:54.242Z,11.47
2023-04-22T15:04:21.912Z,11.49
2023-04-22T15:06:49.559Z,11.53
2023-04-22T15:09:17.520Z,11.58
2023-04-22T15:11:45.013Z,11.70
2023-04-22T15:14:12.593Z,12.15
2023-04-22T15:16:40.362Z,12.82
2023-04-22T15:19:08.259Z,13.20
2023-04-22T15:21:36.058Z,13.48
2023-04-22T15:24:03.610Z,13.50
2023-04-22T15:26:32.333Z,13.37
2023-04-22T15:29:00.589Z,13.75
2023-04-22T15:31:28.265Z,13.69
2023-04-22T15:33:56.348Z,13.45
2023-04-22T15:36:23.858Z,13.39
2023-04-22T15:38:56.537Z,13.19
2023-04-22T15:41:24.881Z,13.31
2023-04-22T15:43:53.791Z,13.45
2023-04-22T15:46:22.421Z,13.25
2023-04-22T15:48:50.296Z,13.07
2023-04-22T15:51:18.975Z,12.78
2023-04-22T15:53:46.630Z,12.48
2023-04-22T15:56:15.367Z,12.30
2023-04-22T15:58:43.030Z,12.10
2023-04-22T16:01:18.762Z,11.92
2023-04-22T16:03:48.762Z,11.74
2023-04-22T16:06:18.061Z,11.57
2023-04-22T16:08:46.165Z,11.60
2023-04-22T16:11:15.325Z,11.60
2023-04-22T16:13:43.020Z,11.56
2023-04-22T16:16:11.205Z,11.52
2023-04-22T16:18:41.416Z,11.46
2023-04-22T16:21:10.710Z,11.45
2023-04-22T16:23:38.296Z,11.36
2023-04-22T16:26:06.514Z,11.29
2023-04-22T16:28:34.144Z,11.26
2023-04-22T16:31:02.430Z,11.18
2023-04-22T16:33:30.028Z,11.06
2023-04-22T16:35:57.505Z,11.04
2023-04-22T16:38:25.040Z,11.04
2023-04-22T16:40:54.413Z,10.99
2023-04-22T16:43:22.111Z,11.05
2023-04-22T16:45:49.747Z,11.01
2023-04-22T16:48:18.514Z,10.95
2023-04-22T16:50:46.131Z,10.87
2023-04-22T16:53:13.657Z,10.90
2023-04-22T16:55:41.486Z,10.98
2023-04-22T16:58:09.124Z,10.96
2023-04-22T17:00:37.407Z,11.01
2023-04-22T17:03:06.179Z,10.92
2023-04-22T17:05:34.202Z,10.60
2023-04-22T17:08:02.172Z,10.46
2023-04-22T17:10:30.238Z,10.37
2023-04-22T17:12:57.866Z,10.36
2023-04-22T17:15:25.356Z,10.36
2023-04-22T17:17:52.865Z,10.36
2023-04-22T17:20:20.590Z,10.35
2023-04-22T17:22:48.101Z,10.38
2023-04-22T17:25:15.649Z,10.41
2023-04-22T17:27:43.108Z,10.43
2023-04-22T17:30:11.117Z,10.41
2023-04-22T17:32:39.010Z,10.29
2023-04-22T17:35:06.998Z,10.20
2023-04-22T17:37:34.525Z,10.21
2023-04-22T17:40:04.804Z,10.17
2023-04-22T17:42:44.645Z,10.13
2023-04-22T17:45:13.252Z,10.12
2023-04-22T17:47:40.913Z,10.14
2023-04-22T17:50:08.849Z,10.11
2023-04-22T17:52:36.634Z,10.12
2023-04-22T17:55:04.604Z,10.13
2023-04-22T17:57:32.200Z,10.13
2023-04-22T17:59:59.939Z,10.19
2023-04-22T18:02:27.721Z,10.14
2023-04-22T18:04:55.334Z,10.17
2023-04-22T18:07:23.034Z,10.18
2023-04-22T18:09:50.810Z,10.10
2023-04-22T18:12:18.691Z,10.01
2023-04-22T18:14:46.281Z,10.08
2023-04-22T18:17:14.043Z,10.08
2023-04-22T18:19:41.874Z,10.03
2023-04-22T18:22:09.549Z,9.98
2023-04-22T18:24:37.324Z,10.01
2023-04-22T18:27:04.853Z,10.03
2023-04-22T18:29:32.552Z,10.06
2023-04-22T18:32:00.062Z,10.05
2023-04-22T18:34:29.148Z,10.06
2023-04-22T18:36:56.684Z,9.99
2023-04-22T18:39:24.177Z,10.04
2023-04-22T18:41:52.122Z,10.02
2023-04-22T18:44:20.515Z,9.97
2023-04-22T18:46:48.144Z,9.91
2023-04-22T18:49:15.647Z,9.84
2023-04-22T18:51:43.112Z,9.83
2023-04-22T18:54:10.613Z,9.79
2023-04-22T18:56:38.148Z,9.78
2023-04-22T18:59:05.778Z,9.71
2023-04-22T19:01:36.796Z,9.73
2023-04-22T19:04:04.581Z,9.71
2023-04-22T19:06:32.962Z,9.66
2023-04-22T19:09:00.655Z,9.69
2023-04-22T19:11:28.152Z,9.72
2023-04-22T19:13:55.722Z,9.68
2023-04-22T19:16:25.667Z,9.68
2023-04-22T19:18:54.080Z,9.60
2023-04-22T19:21:21.985Z,9.61
2023-04-22T19:23:52.958Z,9.63
2023-04-22T19:26:21.264Z,9.65
2023-04-22T19:28:49.240Z,9.57
2023-04-22T19:31:17.380Z,9.57
2023-04-22T19:33:45.299Z,9.54
2023-04-22T19:36:13.020Z,9.51
2023-04-22T19:38:40.860Z,9.53
2023-04-22T19:41:09.203Z,9.36
2023-04-22T19:43:37.946Z,9.28
2023-04-22T19:46:05.508Z,9.18
2023-04-22T19:48:33.700Z,9.15
2023-04-22T19:51:01.550Z,9.10
2023-04-22T19:53:30.863Z,9.03
2023-04-22T19:55:58.668Z,8.99
2023-04-22T19:58:28.269Z,9.05
2023-04-22T20:00:56.010Z,8.98
2023-04-22T20:03:24.073Z,8.92
2023-04-22T20:05:52.096Z,8.91
2023-04-22T20:08:20.011Z,8.80
2023-04-22T20:10:49.731Z,8.77
2023-04-22T20:13:18.055Z,8.92
2023-04-22T20:15:45.641Z,8.93
2023-04-22T20:18:13.278Z,8.93
2023-04-22T20:20:45.784Z,8.96
2023-04-22T20:23:14.914Z,9.00
2023-04-22T20:25:47.159Z,8.93
2023-04-22T20:28:15.007Z,8.92
2023-04-22T20:30:43.054Z,8.94
2023-04-22T20:33:15.750Z,8.93
2023-04-22T20:35:46.126Z,8.93
2023-04-22T20:38:15.131Z,8.97
2023-04-22T20:40:44.744Z,8.95
2023-04-22T20:43:13.065Z,8.99
2023-04-22T20:45:40.554Z,9.07
2023-04-22T20:48:08.371Z,9.09
2023-04-22T20:50:36.059Z,9.03
2023-04-22T20:53:03.936Z,9.04
2023-04-22T20:55:31.795Z,9.05
2023-04-22T20:57:59.530Z,8.96
2023-04-22T21:00:27.134Z,8.94
2023-04-22T21:02:55.939Z,8.98
2023-04-22T21:05:23.672Z,8.98
2023-04-22T21:07:52.712Z,8.98
2023-04-22T21:10:21.184Z,8.96
2023-04-22T21:12:49.029Z,8.94
2023-04-22T21:15:16.973Z,8.96
2023-04-22T21:17:51.966Z,8.76
2023-04-22T21:20:19.902Z,8.72
2023-04-22T21:22:48.387Z,8.67
2023-04-22T21:25:22.173Z,8.79
2023-04-22T21:27:50.309Z,8.74
2023-04-22T21:30:18.456Z,8.66
2023-04-22T21:32:45.962Z,8.70
2023-04-22T21:35:13.552Z,8.67
2023-04-22T21:37:41.365Z,8.64
2023-04-22T21:40:13.094Z,8.62
2023-04-22T21:42:41.753Z,8.65
2023-04-22T21:45:09.750Z,8.62
2023-04-22T21:47:37.737Z,8.55
2023-04-22T21:50:06.731Z,8.50
2023-04-22T21:52:35.024Z,8.49
2023-04-22T21:55:02.627Z,8.55
2023-04-22T21:57:30.428Z,8.50
2023-04-22T21:59:57.983Z,8.52
2023-04-22T22:02:28.374Z,8.49
2023-04-22T22:04:55.892Z,8.49
2023-04-22T22:07:23.466Z,8.39
2023-04-22T22:09:50.928Z,8.48
2023-04-22T22:12:18.761Z,8.48
2023-04-22T22:14:46.339Z,8.47
2023-04-22T22:17:13.920Z,8.50
2023-04-22T22:19:42.068Z,8.56
2023-04-22T22:22:09.555Z,8.52
2023-04-22T22:24:37.145Z,8.54
2023-04-22T22:27:05.517Z,8.53
2023-04-22T22:29:34.382Z,8.52
2023-04-22T22:32:01.982Z,8.50
2023-04-22T22:34:29.673Z,8.41
2023-04-22T22:36:57.178Z,8.48
2023-04-22T22:39:24.831Z,8.60
2023-04-22T22:41:52.341Z,8.50
2023-04-22T22:44:19.791Z,8.46
2023-04-22T22:46:47.421Z,8.53
2023-04-22T22:49:14.954Z,8.44
2023-04-22T22:51:42.455Z,8.28
2023-04-22T22:54:10.001Z,8.32
2023-04-22T22:56:37.520Z,8.36
2023-04-22T22:59:05.237Z,8.37
2023-04-22T23:01:32.900Z,8.38
2023-04-22T23:04:01.125Z,8.47
2023-04-22T23:06:28.919Z,8.47
2023-04-22T23:08:57.207Z,8.41
2023-04-22T23:11:24.826Z,8.40
2023-04-22T23:13:52.267Z,8.41
2023-04-22T23:16:19.842Z,8.50
2023-04-22T23:18:48.149Z,8.55
2023-04-22T23:21:16.280Z,8.59
2023-04-22T23:23:43.900Z,8.59
2023-04-22T23:26:11.820Z,8.58
2023-04-22T23:28:39.798Z,8.55
2023-04-22T23:31:09.144Z,8.51
2023-04-22T23:33:41.915Z,8.50
2023-04-22T23:36:11.562Z,8.54
2023-04-22T23:38:39.033Z,8.65
2023-04-22T23:41:06.751Z,8.63
2023-04-22T23:43:34.321Z,8.62
2023-04-22T23:46:01.874Z,8.66
2023-04-22T23:48:29.778Z,8.72
2023-04-22T23:50:57.306Z,8.67
2023-04-22T23:53:24.824Z,8.71
2023-04-22T23:55:52.530Z,8.75
2023-04-22T23:58:20.375Z,8.74
